Time;durP1;ratioP1;P1;durP2;ratioP2;P2;SDS_P1;SDS_P2;PMS_P1;PMS_P2;Temp;Humidity;BMP_temperature;BMP_pressure;BME280_temperature;BME280_humidity;BME280_pressure;Samples;Min_cycle;Max_cycle;Signal;HPM_P1;HPM_P2
2023/07/28 00:01:03;;;;;;;9.10;6.82;;;19.70;87.70;;;;;;5048607;28;20037;-71
2023/07/28 00:03:29;;;;;;;9.57;6.90;;;19.60;87.70;;;;;;5049691;28;20021;-71
2023/07/28 00:05:55;;;;;;;9.38;6.35;;;19.60;87.70;;;;;;5042178;28;20045;-71
2023/07/28 00:08:20;;;;;;;9.30;6.45;;;19.60;87.70;;;;;;5048643;28;20386;-71
2023/07/28 00:10:46;;;;;;;8.77;6.07;;;19.60;87.70;;;;;;5040766;28;20033;-71
2023/07/28 00:13:12;;;;;;;9.88;6.55;;;19.60;87.70;;;;;;5041001;28;20445;-71
2023/07/28 00:15:38;;;;;;;9.30;6.38;;;19.60;87.80;;;;;;5040987;28;20036;-71
2023/07/28 00:18:03;;;;;;;9.95;6.78;;;19.60;87.80;;;;;;5044170;28;20458;-72
2023/07/28 00:20:29;;;;;;;9.50;6.78;;;19.60;87.80;;;;;;5021930;28;20382;-72
2023/07/28 00:22:55;;;;;;;9.55;7.07;;;19.60;87.80;;;;;;5037598;28;20463;-71
2023/07/28 00:25:22;;;;;;;9.73;6.82;;;19.60;87.80;;;;;;5045125;28;20029;-72
2023/07/28 00:31:13;;;;;;;10.45;6.60;;;19.60;87.70;;;;;;5043872;28;20091;-72
2023/07/28 00:33:39;;;;;;;10.57;8.02;;;19.60;87.80;;;;;;5043241;28;20036;-71
2023/07/28 00:36:26;;;;;;;10.32;6.50;;;19.60;87.80;;;;;;5050608;28;20032;-71
2023/07/28 00:38:55;;;;;;;9.38;6.35;;;19.60;87.80;;;;;;5028349;28;20044;-71
2023/07/28 00:41:22;;;;;;;9.05;6.40;;;19.60;87.90;;;;;;5026327;28;20134;-71
2023/07/28 00:43:48;;;;;;;9.68;6.97;;;19.60;88.00;;;;;;5030147;28;20112;-72
2023/07/28 00:46:14;;;;;;;9.82;7.15;;;19.60;88.00;;;;;;5045165;28;20319;-71
2023/07/28 00:48:40;;;;;;;9.13;6.50;;;19.60;88.00;;;;;;5046377;28;20041;-71
2023/07/28 00:51:07;;;;;;;9.20;6.22;;;19.60;88.00;;;;;;5010506;28;20105;-70
2023/07/28 00:57:20;;;;;;;8.75;6.18;;;19.60;88.00;;;;;;5045520;28;20433;-69
2023/07/28 00:59:46;;;;;;;10.07;6.80;;;19.60;88.00;;;;;;5013104;28;20171;-69
2023/07/28 01:02:12;;;;;;;8.68;6.70;;;19.60;88.00;;;;;;5043417;28;20045;-69
2023/07/28 01:04:39;;;;;;;9.40;6.45;;;19.60;88.00;;;;;;5026012;28;20037;-69
2023/07/28 01:07:13;;;;;;;11.77;7.13;;;19.60;88.10;;;;;;5028696;28;20025;-69
2023/07/28 01:10:25;;;;;;;8.98;6.18;;;19.60;88.20;;;;;;5033839;28;20071;-69
2023/07/28 01:12:51;;;;;;;9.43;6.18;;;19.60;88.10;;;;;;5038604;28;20107;-69
2023/07/28 01:15:17;;;;;;;9.13;6.38;;;19.60;88.10;;;;;;5045482;28;20064;-71
2023/07/28 01:17:43;;;;;;;8.90;6.10;;;19.60;88.20;;;;;;5044239;28;20025;-71
2023/07/28 01:20:10;;;;;;;9.70;7.05;;;19.60;88.20;;;;;;5040008;28;20018;-71
2023/07/28 01:22:56;;;;;;;9.02;6.07;;;19.60;88.20;;;;;;5027097;28;20030;-71
2023/07/28 01:25:47;;;;;;;9.02;6.43;;;19.60;88.10;;;;;;5049854;28;20466;-71
2023/07/28 01:28:15;;;;;;;9.48;6.40;;;19.60;88.10;;;;;;5039924;28;20359;-71
2023/07/28 01:30:41;;;;;;;9.93;7.05;;;19.70;88.20;;;;;;5038338;28;20041;-71
2023/07/28 01:33:08;;;;;;;10.55;7.45;;;19.60;88.20;;;;;;5024251;28;20029;-71
2023/07/28 01:35:35;;;;;;;9.63;7.05;;;19.60;88.20;;;;;;5029084;28;20033;-71
2023/07/28 01:38:01;;;;;;;9.88;6.97;;;19.60;88.20;;;;;;5041357;28;20032;-71
2023/07/28 01:40:27;;;;;;;10.15;7.28;;;19.60;88.20;;;;;;5042879;28;20025;-71
2023/07/28 01:42:53;;;;;;;11.95;7.68;;;19.60;88.20;;;;;;5041871;28;20150;-71
2023/07/28 01:45:18;;;;;;;10.73;7.45;;;19.60;88.30;;;;;;5048158;28;20061;-71
2023/07/28 01:47:44;;;;;;;11.18;7.28;;;19.60;88.90;;;;;;5048326;28;20029;-71
2023/07/28 01:50:10;;;;;;;10.27;7.53;;;19.60;88.20;;;;;;5043743;28;20037;-71
2023/07/28 01:52:35;;;;;;;11.27;8.15;;;19.60;88.20;;;;;;5048213;28;20033;-71
2023/07/28 01:55:02;;;;;;;9.73;6.97;;;19.60;88.20;;;;;;5040075;28;20228;-71
2023/07/28 01:57:33;;;;;;;11.32;7.53;;;19.60;88.20;;;;;;5040750;28;20044;-71
2023/07/28 01:59:59;;;;;;;10.88;7.55;;;19.60;88.30;;;;;;5056671;28;20025;-71
2023/07/28 02:02:25;;;;;;;12.18;8.05;;;19.60;88.20;;;;;;5058723;28;20044;-71
2023/07/28 02:04:51;;;;;;;13.77;7.78;;;19.60;88.20;;;;;;5045007;28;20454;-71
2023/07/28 02:07:16;;;;;;;11.07;7.97;;;19.60;88.20;;;;;;5047603;28;20286;-71
2023/07/28 02:09:42;;;;;;;12.88;8.05;;;19.60;88.20;;;;;;5040459;28;20532;-71
2023/07/28 02:12:08;;;;;;;11.65;8.20;;;19.60;88.30;;;;;;5044043;28;20025;-71
2023/07/28 02:14:34;;;;;;;11.52;8.18;;;19.60;88.20;;;;;;5020313;28;20139;-71
2023/07/28 02:17:00;;;;;;;10.55;7.28;;;19.60;88.20;;;;;;5042165;28;20043;-71
2023/07/28 02:19:26;;;;;;;12.90;8.38;;;19.60;88.20;;;;;;5042808;28;20021;-72
2023/07/28 02:21:52;;;;;;;11.60;8.20;;;19.60;88.30;;;;;;5041893;28;20028;-71
2023/07/28 02:24:18;;;;;;;12.55;7.88;;;19.60;88.90;;;;;;5020075;28;20370;-71
2023/07/28 02:26:43;;;;;;;14.23;8.82;;;19.60;88.20;;;;;;5024135;28;20025;-73
2023/07/28 02:29:09;;;;;;;15.13;9.30;;;19.60;88.20;;;;;;5045803;28;20114;-71
2023/07/28 02:31:35;;;;;;;13.88;9.27;;;19.60;88.20;;;;;;5046225;28;20051;-71
2023/07/28 02:34:01;;;;;;;13.90;9.32;;;19.60;88.20;;;;;;5028405;28;20026;-71
2023/07/28 02:36:26;;;;;;;14.30;9.40;;;19.60;88.20;;;;;;5046886;28;20370;-71
2023/07/28 02:38:52;;;;;;;12.98;9.50;;;19.70;88.30;;;;;;5042400;28;20044;-71
2023/07/28 02:41:18;;;;;;;14.70;9.73;;;19.60;88.20;;;;;;5046830;28;20029;-71
2023/07/28 02:43:44;;;;;;;13.38;8.82;;;19.60;88.20;;;;;;5049475;28;20033;-71
2023/07/28 02:46:09;;;;;;;14.70;10.02;;;19.70;88.20;;;;;;5050765;28;20029;-71
2023/07/28 02:48:35;;;;;;;15.60;10.23;;;19.70;88.20;;;;;;5041611;28;20320;-71
2023/07/28 02:51:01;;;;;;;15.65;10.18;;;19.70;88.20;;;;;;5051487;28;20039;-71
2023/07/28 02:53:27;;;;;;;14.82;9.60;;;19.60;88.20;;;;;;5040606;28;20043;-72
2023/07/28 02:55:53;;;;;;;18.80;10.93;;;19.60;88.30;;;;;;5047002;28;20047;-71
2023/07/28 02:58:19;;;;;;;17.25;10.45;;;19.60;88.30;;;;;;5042197;28;21272;-71
2023/07/28 03:00:46;;;;;;;16.33;10.65;;;19.60;88.30;;;;;;5047313;28;20128;-71
2023/07/28 03:03:15;;;;;;;16.08;10.57;;;19.60;88.40;;;;;;5044016;28;20468;-72
2023/07/28 03:05:41;;;;;;;16.42;11.05;;;19.60;88.30;;;;;;5041991;28;20060;-71
2023/07/28 03:08:17;;;;;;;15.30;11.02;;;19.60;88.40;;;;;;5045347;28;20170;-71
2023/07/28 03:10:43;;;;;;;17.05;10.00;;;19.60;88.40;;;;;;5044773;28;20086;-71
2023/07/28 03:13:10;;;;;;;15.57;10.27;;;19.60;88.30;;;;;;5046557;28;20442;-71
2023/07/28 03:15:36;;;;;;;15.88;9.98;;;19.60;88.30;;;;;;5046711;28;20029;-71
2023/07/28 03:18:02;;;;;;;21.90;11.10;;;19.70;88.30;;;;;;5047165;28;20026;-71
2023/07/28 03:20:27;;;;;;;19.50;11.15;;;19.70;88.30;;;;;;5045796;28;20100;-71
2023/07/28 03:22:54;;;;;;;19.42;11.32;;;19.70;88.30;;;;;;5063766;28;20158;-71
2023/07/28 03:25:20;;;;;;;19.38;11.57;;;19.70;88.30;;;;;;5050137;28;20036;-72
2023/07/28 03:27:46;;;;;;;18.02;10.88;;;19.70;88.30;;;;;;5048971;28;20423;-71
2023/07/28 03:30:12;;;;;;;17.77;11.63;;;19.70;88.30;;;;;;5040848;28;21127;-71
2023/07/28 03:32:38;;;;;;;18.08;11.18;;;19.60;88.30;;;;;;5049065;28;20033;-71
2023/07/28 03:35:05;;;;;;;18.75;11.73;;;19.70;88.30;;;;;;5041536;28;20037;-71
2023/07/28 03:37:33;;;;;;;18.90;11.70;;;19.70;88.30;;;;;;5028139;28;20061;-71
2023/07/28 03:39:59;;;;;;;17.05;11.77;;;19.70;88.30;;;;;;5039900;28;20148;-71
2023/07/28 03:42:34;;;;;;;17.80;10.35;;;19.70;88.30;;;;;;5050511;28;20131;-71
2023/07/28 03:45:00;;;;;;;19.58;12.77;;;19.70;88.30;;;;;;5042323;28;20111;-71
2023/07/28 03:47:25;;;;;;;21.42;11.70;;;19.70;88.30;;;;;;5044852;28;20026;-71
2023/07/28 03:49:51;;;;;;;21.38;13.02;;;19.70;88.30;;;;;;5030647;28;20021;-71
2023/07/28 03:52:17;;;;;;;20.50;12.45;;;19.70;88.40;;;;;;5031194;28;20036;-71
2023/07/28 03:54:43;;;;;;;19.20;11.57;;;19.70;88.40;;;;;;5053111;28;20025;-71
2023/07/28 03:57:09;;;;;;;21.77;12.52;;;19.60;88.40;;;;;;5053651;28;20029;-71
2023/07/28 03:59:35;;;;;;;21.40;12.50;;;19.60;88.40;;;;;;5048745;28;20510;-71
2023/07/28 04:02:01;;;;;;;21.70;12.43;;;19.60;88.40;;;;;;5043205;28;20115;-71
2023/07/28 04:04:28;;;;;;;21.52;11.73;;;19.60;88.40;;;;;;5047084;28;20169;-71
2023/07/28 04:06:54;;;;;;;22.42;13.18;;;19.70;88.50;;;;;;5031586;28;20033;-71
2023/07/28 04:09:20;;;;;;;22.70;12.57;;;19.60;88.40;;;;;;5028361;28;20426;-71
2023/07/28 04:11:46;;;;;;;22.27;14.20;;;19.70;88.60;;;;;;5046430;28;20469;-71
2023/07/28 04:14:12;;;;;;;24.13;14.00;;;19.70;88.50;;;;;;5047763;28;20037;-71
2023/07/28 04:16:38;;;;;;;22.40;14.05;;;19.60;88.50;;;;;;5048714;28;20424;-71
2023/07/28 04:19:04;;;;;;;22.77;13.20;;;19.70;88.50;;;;;;5029886;28;20021;-71
2023/07/28 04:21:30;;;;;;;20.15;13.32;;;19.70;88.50;;;;;;5046339;28;20458;-71
2023/07/28 04:23:55;;;;;;;19.98;12.13;;;19.70;88.60;;;;;;5046901;28;20187;-71
2023/07/28 04:26:24;;;;;;;21.20;13.35;;;19.70;88.60;;;;;;5049044;28;20124;-71
2023/07/28 04:28:55;;;;;;;24.00;14.05;;;19.70;88.50;;;;;;5046472;28;20447;-71
2023/07/28 04:31:24;;;;;;;22.55;13.95;;;19.70;88.50;;;;;;5030898;28;20079;-71
2023/07/28 04:33:56;;;;;;;22.38;13.82;;;19.70;89.20;;;;;;5045326;28;20043;-72
2023/07/28 04:36:23;;;;;;;23.73;13.13;;;19.70;88.60;;;;;;5045839;28;20044;-71
2023/07/28 04:38:49;;;;;;;20.50;13.07;;;19.70;88.60;;;;;;5050125;28;20060;-71
2023/07/28 04:41:15;;;;;;;22.27;13.57;;;19.70;88.60;;;;;;5047483;28;20025;-71
2023/07/28 04:43:50;;;;;;;24.10;13.25;;;19.70;88.60;;;;;;5031201;28;20189;-71
2023/07/28 04:46:17;;;;;;;23.13;13.10;;;19.70;88.60;;;;;;5042394;28;20021;-72
2023/07/28 04:48:47;;;;;;;24.27;15.25;;;19.70;88.60;;;;;;5048397;28;20095;-71
2023/07/28 04:51:32;;;;;;;23.70;14.60;;;19.70;88.70;;;;;;5045038;28;20518;-72
2023/07/28 04:54:30;;;;;;;24.77;13.75;;;19.70;88.80;;;;;;5029422;28;20051;-71
2023/07/28 04:56:55;;;;;;;22.90;13.93;;;19.60;88.80;;;;;;5049311;28;20037;-71
2023/07/28 04:59:28;;;;;;;27.63;13.57;;;19.70;88.90;;;;;;5052891;28;20025;-71
2023/07/28 05:01:53;;;;;;;20.95;13.98;;;19.60;88.90;;;;;;5044264;28;20035;-67
2023/07/28 05:04:19;;;;;;;25.65;15.02;;;19.70;89.00;;;;;;5029512;28;20353;-69
2023/07/28 05:06:45;;;;;;;24.38;12.88;;;19.70;89.00;;;;;;5045490;28;20034;-69
2023/07/28 05:09:11;;;;;;;24.60;14.40;;;19.70;89.00;;;;;;5027947;28;20024;-72
2023/07/28 05:11:37;;;;;;;22.02;13.27;;;19.70;89.00;;;;;;5039983;28;20107;-73
2023/07/28 05:14:02;;;;;;;22.35;13.52;;;19.70;89.00;;;;;;5045665;28;20025;-71
2023/07/28 05:16:29;;;;;;;27.13;14.77;;;19.70;88.90;;;;;;5031775;28;20035;-72
2023/07/28 05:19:15;;;;;;;26.45;15.88;;;19.70;88.90;;;;;;5046289;28;20047;-71
2023/07/28 05:21:40;;;;;;;24.60;13.80;;;19.70;88.90;;;;;;5043331;28;20521;-70
2023/07/28 05:24:08;;;;;;;21.98;14.60;;;19.70;88.90;;;;;;5025500;28;20108;-70
2023/07/28 05:26:37;;;;;;;27.70;15.38;;;19.70;89.00;;;;;;5044998;28;20381;-70
2023/07/28 05:29:02;;;;;;;26.48;15.32;;;19.70;89.00;;;;;;5044341;28;20124;-71
2023/07/28 05:31:30;;;;;;;26.13;15.88;;;19.70;89.00;;;;;;5048060;28;20021;-71
2023/07/28 05:33:56;;;;;;;28.75;14.98;;;19.70;89.00;;;;;;5044169;28;20028;-69
2023/07/28 05:36:22;;;;;;;27.08;15.95;;;19.80;89.00;;;;;;5044705;28;20032;-70
2023/07/28 05:38:49;;;;;;;27.50;16.23;;;19.70;89.00;;;;;;5048434;28;20478;-70
2023/07/28 05:41:15;;;;;;;29.30;15.50;;;19.70;89.00;;;;;;5046646;28;20048;-70
2023/07/28 05:43:43;;;;;;;27.70;15.68;;;19.80;89.10;;;;;;5043611;28;20095;-69
2023/07/28 05:46:09;;;;;;;22.95;15.10;;;19.80;89.10;;;;;;5045003;28;20029;-67
2023/07/28 05:48:36;;;;;;;25.48;15.90;;;19.80;89.00;;;;;;5044037;28;20032;-68
2023/07/28 05:51:01;;;;;;;26.48;14.55;;;19.80;89.00;;;;;;5041123;28;20027;-68
2023/07/28 05:53:27;;;;;;;25.33;16.00;;;19.80;89.00;;;;;;5027394;28;20029;-68
2023/07/28 05:55:58;;;;;;;24.85;15.30;;;19.80;88.90;;;;;;5028688;28;20021;-69
2023/07/28 05:58:27;;;;;;;24.50;15.30;;;19.80;88.90;;;;;;5044908;28;20102;-69
2023/07/28 06:00:52;;;;;;;26.67;15.25;;;19.80;88.80;;;;;;5047160;28;20029;-70
2023/07/28 06:03:38;;;;;;;23.58;15.23;;;19.80;88.80;;;;;;5056483;28;20044;-70
2023/07/28 06:06:10;;;;;;;22.13;14.95;;;19.90;88.80;;;;;;5042821;28;20385;-71
2023/07/28 06:08:36;;;;;;;22.45;14.20;;;19.80;88.80;;;;;;5048688;28;20033;-70
2023/07/28 06:11:06;;;;;;;24.48;15.02;;;19.90;89.50;;;;;;5051233;28;20078;-70
2023/07/28 06:13:32;;;;;;;23.20;14.38;;;19.90;88.80;;;;;;5048120;28;20056;-68
2023/07/28 06:15:58;;;;;;;23.42;14.55;;;19.90;88.80;;;;;;5047854;28;20021;-70
2023/07/28 06:18:24;;;;;;;23.08;14.23;;;19.90;88.80;;;;;;5047691;28;20033;-72
2023/07/28 06:20:59;;;;;;;21.42;13.90;;;19.90;88.90;;;;;;5047568;28;20040;-71
2023/07/28 06:23:27;;;;;;;19.05;13.52;;;19.90;88.80;;;;;;5048687;28;20047;-71
2023/07/28 06:25:55;;;;;;;19.73;13.68;;;19.90;88.80;;;;;;5031655;28;20025;-71
2023/07/28 06:28:21;;;;;;;21.73;13.32;;;20.00;88.80;;;;;;5042894;28;20136;-73
2023/07/28 06:30:48;;;;;;;21.08;13.07;;;20.00;88.80;;;;;;5048000;28;20521;-73
2023/07/28 06:33:14;;;;;;;22.58;13.10;;;20.00;88.80;;;;;;5046962;28;20119;-72
2023/07/28 06:35:39;;;;;;;21.15;13.68;;;20.00;88.80;;;;;;5046893;28;20111;-72
2023/07/28 06:38:05;;;;;;;20.45;13.23;;;20.00;88.90;;;;;;5045228;28;21022;-72
2023/07/28 06:40:31;;;;;;;21.40;12.90;;;20.00;88.80;;;;;;5048018;28;20025;-76
2023/07/28 06:42:57;;;;;;;22.58;13.02;;;20.00;88.80;;;;;;5046684;28;20021;-74
2023/07/28 06:45:23;;;;;;;19.45;12.63;;;20.00;88.90;;;;;;5033626;28;20025;-71
2023/07/28 06:47:48;;;;;;;20.05;12.60;;;20.00;88.80;;;;;;5047244;28;20059;-72
2023/07/28 06:50:14;;;;;;;21.33;13.23;;;20.00;88.80;;;;;;5050110;28;20505;-73
2023/07/28 06:52:40;;;;;;;19.25;12.75;;;20.10;88.80;;;;;;5047923;28;20029;-70
2023/07/28 06:55:06;;;;;;;21.20;13.70;;;20.00;88.80;;;;;;5042418;28;20033;-69
2023/07/28 06:57:35;;;;;;;25.40;14.95;;;20.00;88.80;;;;;;5048059;28;20028;-70
2023/07/28 07:00:01;;;;;;;23.02;14.13;;;20.00;88.80;;;;;;5047778;28;20067;-72
2023/07/28 07:02:26;;;;;;;24.05;14.88;;;20.00;88.90;;;;;;5046401;28;20149;-72
2023/07/28 07:04:52;;;;;;;25.80;15.00;;;20.00;88.90;;;;;;5042298;28;20132;-73
2023/07/28 07:07:18;;;;;;;25.83;15.35;;;20.00;88.80;;;;;;5029563;28;20117;-71
2023/07/28 07:09:45;;;;;;;22.27;15.45;;;20.10;89.00;;;;;;5045500;28;20468;-68
2023/07/28 07:12:10;;;;;;;25.50;16.83;;;20.00;88.90;;;;;;5046533;28;20067;-68
2023/07/28 07:14:36;;;;;;;25.60;16.58;;;20.00;88.90;;;;;;5046325;28;20521;-65
2023/07/28 07:17:02;;;;;;;25.58;17.23;;;20.00;88.80;;;;;;5046143;28;20387;-66
2023/07/28 07:19:29;;;;;;;25.85;16.52;;;20.10;89.00;;;;;;5047228;28;20037;-66
2023/07/28 07:21:55;;;;;;;26.45;15.90;;;20.10;88.90;;;;;;5047860;28;20480;-65
2023/07/28 07:24:21;;;;;;;23.58;16.33;;;20.10;88.80;;;;;;5051741;28;20365;-65
2023/07/28 07:26:47;;;;;;;24.67;16.05;;;20.20;88.80;;;;;;5049169;28;20028;-68
2023/07/28 07:29:13;;;;;;;25.42;15.23;;;20.30;88.70;;;;;;5031453;28;20025;-64
2023/07/28 07:31:39;;;;;;;26.90;15.00;;;20.30;88.50;;;;;;5044456;28;20071;-66
2023/07/28 07:34:04;;;;;;;24.40;15.32;;;20.30;88.50;;;;;;5043756;28;20457;-66
2023/07/28 07:36:31;;;;;;;24.85;14.82;;;20.40;88.50;;;;;;5048786;28;20378;-69
2023/07/28 07:38:58;;;;;;;26.20;14.98;;;20.40;88.40;;;;;;5048498;28;20021;-68
2023/07/28 07:41:24;;;;;;;24.55;14.40;;;20.40;88.40;;;;;;5047956;28;20033;-71
2023/07/28 07:43:52;;;;;;;19.77;12.82;;;20.40;88.30;;;;;;5030569;28;20025;-69
2023/07/28 07:46:22;;;;;;;22.63;13.73;;;20.40;88.20;;;;;;5044204;28;20081;-73
2023/07/28 07:48:47;;;;;;;19.33;13.43;;;20.50;88.20;;;;;;5044604;28;20447;-68
2023/07/28 07:51:14;;;;;;;19.40;12.02;;;20.50;88.10;;;;;;5046782;28;20044;-66
2023/07/28 07:53:39;;;;;;;20.17;12.55;;;20.50;88.00;;;;;;5047438;28;20515;-66
2023/07/28 07:56:06;;;;;;;19.38;11.88;;;20.50;88.00;;;;;;5046273;28;20164;-64
2023/07/28 07:58:32;;;;;;;19.70;12.50;;;20.50;88.00;;;;;;5047185;28;20156;-66
2023/07/28 08:00:58;;;;;;;18.08;11.35;;;20.60;88.00;;;;;;5049739;28;20024;-63
2023/07/28 08:03:24;;;;;;;17.02;11.23;;;20.60;87.90;;;;;;5043986;28;20036;-63
2023/07/28 08:05:51;;;;;;;21.40;13.23;;;20.70;87.90;;;;;;5048443;28;20049;-64
2023/07/28 08:08:19;;;;;;;15.73;9.40;;;20.70;87.70;;;;;;5046923;28;20032;-71
2023/07/28 08:10:49;;;;;;;17.88;10.75;;;20.70;87.50;;;;;;5060741;28;20103;-64
2023/07/28 08:13:15;;;;;;;17.02;10.55;;;20.80;87.50;;;;;;5044516;28;20365;-63
2023/07/28 08:15:43;;;;;;;18.45;11.13;;;20.80;87.50;;;;;;5041763;28;20047;-65
2023/07/28 08:18:08;;;;;;;15.13;10.60;;;20.80;87.40;;;;;;5045098;28;20025;-65
2023/07/28 08:20:34;;;;;;;19.73;11.43;;;20.70;87.30;;;;;;5033403;28;20024;-66
2023/07/28 08:23:00;;;;;;;18.70;11.52;;;20.70;87.30;;;;;;5041627;28;20029;-66
2023/07/28 08:25:26;;;;;;;17.17;11.02;;;20.70;87.30;;;;;;5044593;28;20017;-66
2023/07/28 08:27:52;;;;;;;20.60;12.43;;;20.80;87.40;;;;;;5046913;28;20029;-65
2023/07/28 08:30:18;;;;;;;15.82;11.00;;;20.70;87.30;;;;;;5052921;28;20040;-65
2023/07/28 08:32:44;;;;;;;17.60;11.73;;;20.80;87.40;;;;;;5049605;28;20076;-64
2023/07/28 08:35:10;;;;;;;17.70;11.48;;;20.80;87.30;;;;;;5045664;28;20056;-64
2023/07/28 08:37:36;;;;;;;19.23;11.55;;;20.90;87.30;;;;;;5051825;28;20029;-64
2023/07/28 08:40:02;;;;;;;17.67;11.45;;;20.90;87.10;;;;;;5045580;28;20021;-64
2023/07/28 08:42:30;;;;;;;18.13;11.98;;;20.90;87.10;;;;;;5048782;28;20033;-64
2023/07/28 08:44:56;;;;;;;17.48;11.20;;;20.80;87.00;;;;;;5032641;28;20021;-64
2023/07/28 08:47:21;;;;;;;16.35;11.10;;;20.80;87.10;;;;;;5043943;28;20029;-64
2023/07/28 08:49:47;;;;;;;17.23;11.07;;;20.80;87.10;;;;;;5045221;28;20068;-64
2023/07/28 08:52:16;;;;;;;17.10;11.77;;;20.80;87.10;;;;;;5048226;28;20021;-64
2023/07/28 08:54:42;;;;;;;17.02;11.98;;;20.70;87.00;;;;;;5048220;28;20414;-64
2023/07/28 08:57:10;;;;;;;17.17;11.88;;;20.70;87.10;;;;;;5042100;28;20068;-64
2023/07/28 08:59:36;;;;;;;18.55;11.25;;;20.70;87.20;;;;;;5031212;28;20031;-64
2023/07/28 09:02:04;;;;;;;15.18;10.50;;;20.80;87.10;;;;;;5044008;28;20021;-65
2023/07/28 09:04:30;;;;;;;16.55;10.68;;;20.90;86.90;;;;;;5046440;28;20021;-65
2023/07/28 09:06:56;;;;;;;16.30;10.30;;;21.00;86.70;;;;;;5042911;28;20378;-65
2023/07/28 09:09:23;;;;;;;17.40;10.30;;;21.10;86.50;;;;;;5048171;28;20036;-64
2023/07/28 09:11:51;;;;;;;16.25;9.18;;;21.20;86.40;;;;;;5038074;28;20029;-64
2023/07/28 09:14:19;;;;;;;14.07;10.00;;;21.10;86.30;;;;;;5032583;28;20130;-64
2023/07/28 09:16:46;;;;;;;15.70;9.68;;;21.20;86.30;;;;;;5052468;28;20025;-65
2023/07/28 09:19:12;;;;;;;15.55;9.52;;;21.20;86.20;;;;;;5049189;28;20116;-66
2023/07/28 09:21:40;;;;;;;15.55;10.13;;;21.20;86.20;;;;;;5045182;28;20020;-65
2023/07/28 09:24:07;;;;;;;16.42;9.88;;;21.20;86.10;;;;;;5046711;28;20028;-65
2023/07/28 09:26:39;;;;;;;15.13;10.50;;;21.20;86.10;;;;;;5063648;28;20025;-65
2023/07/28 09:29:17;;;;;;;16.55;9.95;;;21.20;86.00;;;;;;5046357;28;20078;-65
2023/07/28 09:31:50;;;;;;;14.30;9.23;;;21.20;86.00;;;;;;5027385;28;20036;-65
2023/07/28 09:34:26;;;;;;;14.60;9.40;;;21.20;86.00;;;;;;5047402;28;20439;-65
2023/07/28 09:36:54;;;;;;;16.35;9.93;;;21.20;85.90;;;;;;5048354;28;20040;-65
2023/07/28 09:39:20;;;;;;;14.48;10.00;;;21.30;85.90;;;;;;5045807;28;20017;-64
2023/07/28 09:41:47;;;;;;;15.55;10.10;;;21.30;85.60;;;;;;5049234;28;20438;-64
2023/07/28 09:44:14;;;;;;;15.23;10.48;;;21.40;85.40;;;;;;5035502;28;20081;-65
2023/07/28 09:46:55;;;;;;;16.88;9.82;;;21.60;85.20;;;;;;5052064;28;20029;-64
2023/07/28 09:49:34;;;;;;;14.02;9.48;;;21.70;84.90;;;;;;5046104;28;20446;-64
2023/07/28 09:52:05;;;;;;;15.13;9.45;;;21.80;84.70;;;;;;5054639;28;20744;-65
2023/07/28 09:54:34;;;;;;;16.13;10.48;;;22.00;84.30;;;;;;5046681;28;20560;-64
2023/07/28 09:57:01;;;;;;;15.13;10.55;;;22.20;83.80;;;;;;5048095;28;20124;-64
2023/07/28 09:59:35;;;;;;;14.38;10.32;;;22.30;83.30;;;;;;5043400;28;20446;-64
2023/07/28 10:02:02;;;;;;;14.63;10.10;;;22.50;83.00;;;;;;5035021;28;20104;-64
2023/07/28 10:04:29;;;;;;;14.73;9.40;;;22.60;82.80;;;;;;5054252;28;20029;-64
2023/07/28 10:06:56;;;;;;;13.93;8.93;;;22.60;82.70;;;;;;5052866;28;20037;-64
2023/07/28 10:09:26;;;;;;;13.32;8.98;;;22.60;82.50;;;;;;5063542;28;20031;-64
2023/07/28 10:11:53;;;;;;;14.88;10.30;;;22.70;83.10;;;;;;5053166;28;20037;-64
2023/07/28 10:14:30;;;;;;;15.20;10.10;;;22.80;82.10;;;;;;5048541;28;20048;-64
2023/07/28 10:16:58;;;;;;;14.98;9.48;;;23.00;81.80;;;;;;5047317;28;20037;-65
2023/07/28 10:19:26;;;;;;;14.52;9.55;;;23.10;81.40;;;;;;5050242;28;20131;-65
2023/07/28 10:22:11;;;;;;;14.18;8.98;;;23.40;81.10;;;;;;5054862;28;20013;-65
2023/07/28 10:24:55;;;;;;;15.52;9.48;;;23.80;80.30;;;;;;5050839;28;20016;-65
2023/07/28 10:27:46;;;;;;;12.60;8.48;;;24.30;79.20;;;;;;5052669;28;20087;-66
2023/07/28 10:30:15;;;;;;;13.88;8.82;;;24.70;78.10;;;;;;5053560;28;20033;-66
2023/07/28 10:32:43;;;;;;;12.98;9.05;;;24.80;77.60;;;;;;5045526;28;20541;-66
2023/07/28 10:35:12;;;;;;;15.57;9.30;;;24.70;78.10;;;;;;5055256;28;20036;-66
2023/07/28 10:37:38;;;;;;;14.43;9.65;;;24.50;77.60;;;;;;5033241;28;20069;-66
2023/07/28 10:40:30;;;;;;;13.90;9.48;;;24.40;77.80;;;;;;5033466;28;20423;-66
2023/07/28 10:42:59;;;;;;;11.82;8.10;;;24.40;77.40;;;;;;5050370;28;20021;-66
2023/07/28 10:45:28;;;;;;;12.85;8.95;;;24.30;77.50;;;;;;5053814;28;20061;-66
2023/07/28 10:47:55;;;;;;;12.95;8.48;;;24.20;77.60;;;;;;5031678;28;20110;-66
2023/07/28 10:50:24;;;;;;;14.20;8.65;;;24.00;77.90;;;;;;5052952;28;20116;-66
2023/07/28 10:52:50;;;;;;;11.40;8.43;;;24.20;77.70;;;;;;5048610;28;20098;-66
2023/07/28 10:55:18;;;;;;;14.07;9.35;;;24.60;77.10;;;;;;5030820;28;20342;-66
2023/07/28 10:57:45;;;;;;;11.93;7.72;;;24.80;76.60;;;;;;5054000;28;20104;-66
2023/07/28 11:00:13;;;;;;;12.80;9.45;;;24.80;75.90;;;;;;5054736;28;20025;-67
2023/07/28 11:02:43;;;;;;;11.02;8.15;;;24.70;75.70;;;;;;5053897;28;20116;-66
2023/07/28 11:05:14;;;;;;;12.93;9.05;;;24.60;75.70;;;;;;5047007;28;20049;-66
2023/07/28 11:07:44;;;;;;;13.55;9.32;;;24.70;75.70;;;;;;5051790;28;20021;-66
2023/07/28 11:10:14;;;;;;;14.35;9.38;;;24.70;75.30;;;;;;5052461;28;20019;-67
2023/07/28 11:12:42;;;;;;;13.32;8.73;;;24.70;75.20;;;;;;5050494;28;20520;-66
2023/07/28 11:15:13;;;;;;;14.85;9.52;;;24.70;75.00;;;;;;5052341;28;20342;-66
2023/07/28 11:17:40;;;;;;;14.43;9.48;;;24.50;74.80;;;;;;5056311;28;20041;-66
2023/07/28 11:20:22;;;;;;;13.13;8.68;;;24.30;75.20;;;;;;5053363;28;20036;-66
2023/07/28 11:22:59;;;;;;;13.27;8.98;;;24.20;75.30;;;;;;5044172;28;20056;-66
2023/07/28 11:25:27;;;;;;;11.57;7.88;;;24.10;75.50;;;;;;5033789;28;20025;-66
2023/07/28 11:27:54;;;;;;;11.40;8.05;;;24.10;75.70;;;;;;5056071;28;20104;-66
2023/07/28 11:30:23;;;;;;;13.13;7.93;;;24.10;75.80;;;;;;5033398;28;20128;-65
2023/07/28 11:32:51;;;;;;;14.05;8.50;;;24.00;75.50;;;;;;5040549;28;20032;-65
2023/07/28 11:35:18;;;;;;;13.93;8.63;;;24.00;75.40;;;;;;5048549;28;20116;-66
2023/07/28 11:37:46;;;;;;;12.63;8.77;;;24.00;75.50;;;;;;5054080;28;20021;-66
2023/07/28 11:40:14;;;;;;;13.80;8.70;;;23.90;75.30;;;;;;5050870;28;20113;-65
2023/07/28 11:42:51;;;;;;;12.95;9.38;;;24.00;75.80;;;;;;5054850;28;20032;-65
2023/07/28 11:45:18;;;;;;;12.18;8.85;;;24.20;74.80;;;;;;5027981;28;20068;-65
2023/07/28 11:48:05;;;;;;;12.68;9.23;;;24.30;74.50;;;;;;5051953;28;20036;-65
2023/07/28 11:50:41;;;;;;;12.45;8.77;;;24.40;74.30;;;;;;5052681;28;20023;-65
2023/07/28 11:53:08;;;;;;;12.63;8.48;;;24.50;74.30;;;;;;5051537;28;20020;-65
2023/07/28 11:55:38;;;;;;;12.77;8.70;;;24.50;74.30;;;;;;5052880;28;20039;-65
2023/07/28 11:58:08;;;;;;;11.93;8.43;;;24.70;74.10;;;;;;5053016;28;20021;-65
2023/07/28 12:00:36;;;;;;;11.48;8.38;;;24.70;73.80;;;;;;5053464;28;20029;-65
2023/07/28 12:03:09;;;;;;;13.10;8.43;;;24.80;73.40;;;;;;5067599;28;20022;-65
2023/07/28 12:05:36;;;;;;;11.50;8.18;;;24.80;73.10;;;;;;5046860;28;20066;-66
2023/07/28 12:08:07;;;;;;;13.13;7.82;;;24.90;73.10;;;;;;5043574;28;20029;-65
2023/07/28 12:10:33;;;;;;;;;;;24.90;72.90;;;;;;5030071;28;20429;-66
2023/07/28 12:13:07;;;;;;;10.70;6.95;;;25.00;73.00;;;;;;5045478;28;19987;-66
2023/07/28 12:15:34;;;;;;;10.63;7.75;;;25.00;72.80;;;;;;5046985;28;20104;-65
2023/07/28 12:18:14;;;;;;;11.00;7.38;;;24.90;72.60;;;;;;5046863;28;20079;-68
2023/07/28 12:20:49;;;;;;;11.70;8.23;;;24.90;72.40;;;;;;5048350;28;20444;-67
2023/07/28 12:23:20;;;;;;;13.23;8.20;;;24.80;72.40;;;;;;5046973;28;20024;-68
2023/07/28 12:25:46;;;;;;;12.02;7.68;;;24.70;72.50;;;;;;5046316;28;20060;-65
2023/07/28 12:28:12;;;;;;;10.88;7.32;;;24.80;72.50;;;;;;5046967;28;20055;-67
2023/07/28 12:30:38;;;;;;;11.10;7.30;;;24.70;72.40;;;;;;5048052;28;20029;-66
2023/07/28 12:33:05;;;;;;;13.70;7.82;;;24.80;72.50;;;;;;5042697;28;20080;-66
2023/07/28 12:35:34;;;;;;;14.77;7.75;;;24.70;72.50;;;;;;5043152;28;20029;-66
2023/07/28 12:38:04;;;;;;;12.82;8.05;;;24.70;72.50;;;;;;5040796;28;20441;-67
2023/07/28 12:40:31;;;;;;;12.88;7.50;;;24.80;72.40;;;;;;5040966;28;20036;-67
2023/07/28 12:42:58;;;;;;;11.27;6.78;;;24.80;72.30;;;;;;5045103;28;20033;-66
2023/07/28 12:45:25;;;;;;;9.95;7.03;;;24.80;72.30;;;;;;5027144;28;20036;-67